sensor_id;sensor_type;location;lat;lon;timestamp;temperature;humidity
20803;DHT22;10562;-33.856;151.182;2022-12-29T00:01:33;21.50;99.90
20803;DHT22;10562;-33.856;151.182;2022-12-29T00:04:04;21.70;99.90
20803;DHT22;10562;-33.856;151.182;2022-12-29T00:06:35;21.80;99.90
20803;DHT22;10562;-33.856;151.182;2022-12-29T00:09:08;21.90;99.90
20803;DHT22;10562;-33.856;151.182;2022-12-29T00:11:40;22.00;99.90
20803;DHT22;10562;-33.856;151.182;2022-12-29T00:14:12;22.10;99.90
20803;DHT22;10562;-33.856;151.182;2022-12-29T00:17:07;22.10;99.90
20803;DHT22;10562;-33.856;151.182;2022-12-29T00:19:38;22.20;99.90
20803;DHT22;10562;-33.856;151.182;2022-12-29T00:22:25;22.20;99.90
20803;DHT22;10562;-33.856;151.182;2022-12-29T00:25:14;22.30;99.90
20803;DHT22;10562;-33.856;151.182;2022-12-29T00:28:00;22.10;99.90
20803;DHT22;10562;-33.856;151.182;2022-12-29T00:30:48;21.80;99.90
20803;DHT22;10562;-33.856;151.182;2022-12-29T00:33:35;21.80;99.90
20803;DHT22;10562;-33.856;151.182;2022-12-29T00:36:25;21.80;99.90
20803;DHT22;10562;-33.856;151.182;2022-12-29T00:38:59;21.90;99.90
20803;DHT22;10562;-33.856;151.182;2022-12-29T00:41:48;21.80;99.90
20803;DHT22;10562;-33.856;151.182;2022-12-29T00:44:35;21.90;99.90
20803;DHT22;10562;-33.856;151.182;2022-12-29T00:47:06;21.90;99.90
20803;DHT22;10562;-33.856;151.182;2022-12-29T00:49:37;22.00;99.90
20803;DHT22;10562;-33.856;151.182;2022-12-29T00:52:07;22.20;99.90
20803;DHT22;10562;-33.856;151.182;2022-12-29T00:54:39;22.30;99.90
20803;DHT22;10562;-33.856;151.182;2022-12-29T00:57:14;22.50;99.90
20803;DHT22;10562;-33.856;151.182;2022-12-29T00:59:45;22.70;99.90
20803;DHT22;10562;-33.856;151.182;2022-12-29T01:02:15;22.70;99.90
20803;DHT22;10562;-33.856;151.182;2022-12-29T01:04:46;22.60;99.90
20803;DHT22;10562;-33.856;151.182;2022-12-29T01:07:17;22.60;99.90
20803;DHT22;10562;-33.856;151.182;2022-12-29T01:09:48;22.70;99.90
20803;DHT22;10562;-33.856;151.182;2022-12-29T01:12:42;22.40;99.90
20803;DHT22;10562;-33.856;151.182;2022-12-29T01:15:16;22.40;99.90
20803;DHT22;10562;-33.856;151.182;2022-12-29T01:17:46;22.30;99.90
20803;DHT22;10562;-33.856;151.182;2022-12-29T01:20:17;22.40;99.90
20803;DHT22;10562;-33.856;151.182;2022-12-29T01:22:48;22.30;99.90
20803;DHT22;10562;-33.856;151.182;2022-12-29T01:25:19;22.40;99.90
20803;DHT22;10562;-33.856;151.182;2022-12-29T01:27:52;22.30;99.90
20803;DHT22;10562;-33.856;151.182;2022-12-29T01:30:23;22.20;99.90
20803;DHT22;10562;-33.856;151.182;2022-12-29T01:32:53;22.20;99.90
20803;DHT22;10562;-33.856;151.182;2022-12-29T01:35:26;22.30;99.90
20803;DHT22;10562;-33.856;151.182;2022-12-29T01:37:57;22.30;99.90
20803;DHT22;10562;-33.856;151.182;2022-12-29T01:40:27;22.30;99.90
20803;DHT22;10562;-33.856;151.182;2022-12-29T01:43:00;22.30;99.90
20803;DHT22;10562;-33.856;151.182;2022-12-29T01:45:31;22.40;99.90
20803;DHT22;10562;-33.856;151.182;2022-12-29T01:48:03;22.50;99.90
20803;DHT22;10562;-33.856;151.182;2022-12-29T01:50:38;22.60;99.90
20803;DHT22;10562;-33.856;151.182;2022-12-29T01:53:11;22.70;99.90
20803;DHT22;10562;-33.856;151.182;2022-12-29T01:55:48;22.90;99.90
20803;DHT22;10562;-33.856;151.182;2022-12-29T01:58:33;23.00;99.90
20803;DHT22;10562;-33.856;151.182;2022-12-29T02:01:07;23.00;99.90
20803;DHT22;10562;-33.856;151.182;2022-12-29T02:03:38;23.00;99.90
20803;DHT22;10562;-33.856;151.182;2022-12-29T02:06:11;22.90;99.90
20803;DHT22;10562;-33.856;151.182;2022-12-29T02:08:44;23.00;99.90
20803;DHT22;10562;-33.856;151.182;2022-12-29T02:11:18;23.20;99.90
20803;DHT22;10562;-33.856;151.182;2022-12-29T02:13:55;23.20;99.90
20803;DHT22;10562;-33.856;151.182;2022-12-29T02:16:37;23.20;99.90
20803;DHT22;10562;-33.856;151.182;2022-12-29T02:22:29;23.00;99.90
20803;DHT22;10562;-33.856;151.182;2022-12-29T02:25:37;23.10;99.90
20803;DHT22;10562;-33.856;151.182;2022-12-29T02:28:28;23.20;99.90
20803;DHT22;10562;-33.856;151.182;2022-12-29T02:31:09;23.30;99.90
20803;DHT22;10562;-33.856;151.182;2022-12-29T02:33:50;23.40;99.90
20803;DHT22;10562;-33.856;151.182;2022-12-29T02:36:28;23.50;99.90
20803;DHT22;10562;-33.856;151.182;2022-12-29T02:39:04;23.70;99.90
20803;DHT22;10562;-33.856;151.182;2022-12-29T02:41:47;23.60;99.90
20803;DHT22;10562;-33.856;151.182;2022-12-29T02:44:27;23.70;99.90
20803;DHT22;10562;-33.856;151.182;2022-12-29T02:47:08;23.50;99.90
20803;DHT22;10562;-33.856;151.182;2022-12-29T02:49:49;23.60;99.90
20803;DHT22;10562;-33.856;151.182;2022-12-29T02:52:25;23.80;99.90
20803;DHT22;10562;-33.856;151.182;2022-12-29T02:54:59;23.80;99.90
20803;DHT22;10562;-33.856;151.182;2022-12-29T02:57:31;23.60;99.90
20803;DHT22;10562;-33.856;151.182;2022-12-29T03:00:05;23.50;99.90
20803;DHT22;10562;-33.856;151.182;2022-12-29T03:03:00;23.40;99.90
20803;DHT22;10562;-33.856;151.182;2022-12-29T03:05:53;23.40;99.90
20803;DHT22;10562;-33.856;151.182;2022-12-29T03:08:31;23.50;99.90
20803;DHT22;10562;-33.856;151.182;2022-12-29T03:11:07;23.50;99.90
20803;DHT22;10562;-33.856;151.182;2022-12-29T03:14:05;23.60;99.90
20803;DHT22;10562;-33.856;151.182;2022-12-29T03:17:00;23.60;99.90
20803;DHT22;10562;-33.856;151.182;2022-12-29T03:19:36;23.90;99.90
20803;DHT22;10562;-33.856;151.182;2022-12-29T03:22:10;23.90;99.90
20803;DHT22;10562;-33.856;151.182;2022-12-29T03:25:01;24.00;99.90
20803;DHT22;10562;-33.856;151.182;2022-12-29T03:27:34;23.90;99.90
20803;DHT22;10562;-33.856;151.182;2022-12-29T03:30:08;23.80;99.90
20803;DHT22;10562;-33.856;151.182;2022-12-29T03:32:42;23.80;99.90
20803;DHT22;10562;-33.856;151.182;2022-12-29T03:35:19;23.90;99.90
20803;DHT22;10562;-33.856;151.182;2022-12-29T03:37:55;23.90;99.90
20803;DHT22;10562;-33.856;151.182;2022-12-29T03:40:30;24.00;99.90
20803;DHT22;10562;-33.856;151.182;2022-12-29T03:43:02;24.00;99.90
20803;DHT22;10562;-33.856;151.182;2022-12-29T03:45:35;24.10;99.90
20803;DHT22;10562;-33.856;151.182;2022-12-29T03:48:07;24.10;99.90
20803;DHT22;10562;-33.856;151.182;2022-12-29T03:50:40;24.10;99.90
20803;DHT22;10562;-33.856;151.182;2022-12-29T03:53:15;24.00;99.90
20803;DHT22;10562;-33.856;151.182;2022-12-29T03:55:47;24.00;99.90
20803;DHT22;10562;-33.856;151.182;2022-12-29T03:58:18;24.20;99.90
20803;DHT22;10562;-33.856;151.182;2022-12-29T04:00:49;24.40;99.90
20803;DHT22;10562;-33.856;151.182;2022-12-29T04:03:20;24.50;99.90
20803;DHT22;10562;-33.856;151.182;2022-12-29T04:05:53;24.70;99.90
20803;DHT22;10562;-33.856;151.182;2022-12-29T04:08:24;24.80;99.90
20803;DHT22;10562;-33.856;151.182;2022-12-29T04:10:54;24.80;99.90
20803;DHT22;10562;-33.856;151.182;2022-12-29T04:13:25;24.90;99.90
20803;DHT22;10562;-33.856;151.182;2022-12-29T04:15:56;24.90;99.90
20803;DHT22;10562;-33.856;151.182;2022-12-29T04:18:26;24.90;99.90
20803;DHT22;10562;-33.856;151.182;2022-12-29T04:20:59;24.90;99.90
20803;DHT22;10562;-33.856;151.182;2022-12-29T04:23:31;24.80;99.90
20803;DHT22;10562;-33.856;151.182;2022-12-29T04:26:04;24.70;99.90
20803;DHT22;10562;-33.856;151.182;2022-12-29T04:28:36;24.30;99.90
20803;DHT22;10562;-33.856;151.182;2022-12-29T04:31:08;24.20;99.90
20803;DHT22;10562;-33.856;151.182;2022-12-29T04:33:38;24.30;99.90
20803;DHT22;10562;-33.856;151.182;2022-12-29T04:36:12;24.20;99.90
20803;DHT22;10562;-33.856;151.182;2022-12-29T04:38:43;24.30;99.90
20803;DHT22;10562;-33.856;151.182;2022-12-29T04:41:14;24.30;99.90
20803;DHT22;10562;-33.856;151.182;2022-12-29T04:43:45;24.40;99.90
20803;DHT22;10562;-33.856;151.182;2022-12-29T04:46:16;24.40;99.90
20803;DHT22;10562;-33.856;151.182;2022-12-29T04:48:47;24.30;99.90
20803;DHT22;10562;-33.856;151.182;2022-12-29T04:51:19;24.30;99.90
20803;DHT22;10562;-33.856;151.182;2022-12-29T04:53:51;24.30;99.90
20803;DHT22;10562;-33.856;151.182;2022-12-29T04:56:21;24.20;99.90
20803;DHT22;10562;-33.856;151.182;2022-12-29T04:58:52;24.20;99.90
20803;DHT22;10562;-33.856;151.182;2022-12-29T05:01:24;24.20;99.90
20803;DHT22;10562;-33.856;151.182;2022-12-29T05:03:54;24.20;99.90
20803;DHT22;10562;-33.856;151.182;2022-12-29T05:06:27;24.10;99.90
20803;DHT22;10562;-33.856;151.182;2022-12-29T05:08:58;24.10;99.90
20803;DHT22;10562;-33.856;151.182;2022-12-29T05:11:28;24.10;99.90
20803;DHT22;10562;-33.856;151.182;2022-12-29T05:14:01;24.00;99.90
20803;DHT22;10562;-33.856;151.182;2022-12-29T05:16:32;23.90;99.90
20803;DHT22;10562;-33.856;151.182;2022-12-29T05:19:03;23.80;99.90
20803;DHT22;10562;-33.856;151.182;2022-12-29T05:21:36;23.60;99.90
20803;DHT22;10562;-33.856;151.182;2022-12-29T05:24:07;23.60;99.90
20803;DHT22;10562;-33.856;151.182;2022-12-29T05:26:38;23.80;99.90
20803;DHT22;10562;-33.856;151.182;2022-12-29T05:29:08;23.90;99.90
20803;DHT22;10562;-33.856;151.182;2022-12-29T05:31:39;23.90;99.90
20803;DHT22;10562;-33.856;151.182;2022-12-29T05:34:12;24.00;99.90
20803;DHT22;10562;-33.856;151.182;2022-12-29T05:36:44;24.10;99.90
20803;DHT22;10562;-33.856;151.182;2022-12-29T05:39:15;24.10;99.90
20803;DHT22;10562;-33.856;151.182;2022-12-29T05:41:46;24.10;99.90
20803;DHT22;10562;-33.856;151.182;2022-12-29T05:44:17;24.20;99.90
20803;DHT22;10562;-33.856;151.182;2022-12-29T05:46:48;24.30;99.90
20803;DHT22;10562;-33.856;151.182;2022-12-29T05:49:19;24.10;99.90
20803;DHT22;10562;-33.856;151.182;2022-12-29T05:51:51;24.00;99.90
20803;DHT22;10562;-33.856;151.182;2022-12-29T05:54:22;23.90;99.90
20803;DHT22;10562;-33.856;151.182;2022-12-29T05:56:56;23.80;99.90
20803;DHT22;10562;-33.856;151.182;2022-12-29T05:59:26;23.80;99.90
20803;DHT22;10562;-33.856;151.182;2022-12-29T06:01:57;23.70;99.90
20803;DHT22;10562;-33.856;151.182;2022-12-29T06:04:28;23.50;99.90
20803;DHT22;10562;-33.856;151.182;2022-12-29T06:07:01;23.40;99.90
20803;DHT22;10562;-33.856;151.182;2022-12-29T06:09:32;23.30;99.90
20803;DHT22;10562;-33.856;151.182;2022-12-29T06:12:03;23.20;99.90
20803;DHT22;10562;-33.856;151.182;2022-12-29T06:14:33;23.10;99.90
20803;DHT22;10562;-33.856;151.182;2022-12-29T06:17:04;23.00;99.90
20803;DHT22;10562;-33.856;151.182;2022-12-29T06:19:35;23.00;99.90
20803;DHT22;10562;-33.856;151.182;2022-12-29T06:22:09;23.00;99.90
20803;DHT22;10562;-33.856;151.182;2022-12-29T06:24:41;23.00;99.90
20803;DHT22;10562;-33.856;151.182;2022-12-29T06:27:12;22.90;99.90
20803;DHT22;10562;-33.856;151.182;2022-12-29T06:29:43;22.90;99.90
20803;DHT22;10562;-33.856;151.182;2022-12-29T06:32:14;22.70;99.90
20803;DHT22;10562;-33.856;151.182;2022-12-29T06:34:48;22.70;99.90
20803;DHT22;10562;-33.856;151.182;2022-12-29T06:37:20;22.60;99.90
20803;DHT22;10562;-33.856;151.182;2022-12-29T06:39:51;22.50;99.90
20803;DHT22;10562;-33.856;151.182;2022-12-29T06:42:22;22.40;99.90
20803;DHT22;10562;-33.856;151.182;2022-12-29T06:44:53;22.30;99.90
20803;DHT22;10562;-33.856;151.182;2022-12-29T06:47:26;22.20;99.90
20803;DHT22;10562;-33.856;151.182;2022-12-29T06:49:57;22.10;99.90
20803;DHT22;10562;-33.856;151.182;2022-12-29T06:52:31;22.00;99.90
20803;DHT22;10562;-33.856;151.182;2022-12-29T06:55:01;22.00;99.90
20803;DHT22;10562;-33.856;151.182;2022-12-29T06:57:33;21.90;99.90
20803;DHT22;10562;-33.856;151.182;2022-12-29T07:00:05;21.90;99.90
20803;DHT22;10562;-33.856;151.182;2022-12-29T07:02:36;21.90;99.90
20803;DHT22;10562;-33.856;151.182;2022-12-29T07:05:07;21.90;99.90
20803;DHT22;10562;-33.856;151.182;2022-12-29T07:07:39;21.90;99.90
20803;DHT22;10562;-33.856;151.182;2022-12-29T07:10:10;21.90;99.90
20803;DHT22;10562;-33.856;151.182;2022-12-29T07:12:41;21.90;99.90
20803;DHT22;10562;-33.856;151.182;2022-12-29T07:15:13;21.80;99.90
20803;DHT22;10562;-33.856;151.182;2022-12-29T07:17:43;21.80;99.90
20803;DHT22;10562;-33.856;151.182;2022-12-29T07:20:14;21.80;99.90
20803;DHT22;10562;-33.856;151.182;2022-12-29T07:22:47;21.70;99.90
20803;DHT22;10562;-33.856;151.182;2022-12-29T07:25:18;21.70;99.90
20803;DHT22;10562;-33.856;151.182;2022-12-29T07:27:49;21.60;99.90
20803;DHT22;10562;-33.856;151.182;2022-12-29T07:30:19;21.50;99.90
20803;DHT22;10562;-33.856;151.182;2022-12-29T07:32:53;21.50;99.90
20803;DHT22;10562;-33.856;151.182;2022-12-29T07:35:24;21.50;99.90
20803;DHT22;10562;-33.856;151.182;2022-12-29T07:37:57;21.50;99.90
20803;DHT22;10562;-33.856;151.182;2022-12-29T07:40:27;21.40;99.90
20803;DHT22;10562;-33.856;151.182;2022-12-29T07:42:58;21.40;99.90
20803;DHT22;10562;-33.856;151.182;2022-12-29T07:45:29;21.30;99.90
20803;DHT22;10562;-33.856;151.182;2022-12-29T07:48:00;21.40;99.90
20803;DHT22;10562;-33.856;151.182;2022-12-29T07:50:32;21.30;99.90
20803;DHT22;10562;-33.856;151.182;2022-12-29T07:53:05;21.30;99.90
20803;DHT22;10562;-33.856;151.182;2022-12-29T07:55:35;21.30;99.90
20803;DHT22;10562;-33.856;151.182;2022-12-29T07:58:06;21.30;99.90
20803;DHT22;10562;-33.856;151.182;2022-12-29T08:00:38;21.30;99.90
20803;DHT22;10562;-33.856;151.182;2022-12-29T08:03:09;21.30;99.90
20803;DHT22;10562;-33.856;151.182;2022-12-29T08:05:41;21.20;99.90
20803;DHT22;10562;-33.856;151.182;2022-12-29T08:08:14;21.20;99.90
20803;DHT22;10562;-33.856;151.182;2022-12-29T08:10:45;21.10;99.90
20803;DHT22;10562;-33.856;151.182;2022-12-29T08:13:16;21.10;99.90
20803;DHT22;10562;-33.856;151.182;2022-12-29T08:15:46;21.10;99.90
20803;DHT22;10562;-33.856;151.182;2022-12-29T08:18:17;21.10;99.90
20803;DHT22;10562;-33.856;151.182;2022-12-29T08:20:48;21.00;99.90
20803;DHT22;10562;-33.856;151.182;2022-12-29T08:23:21;21.00;99.90
20803;DHT22;10562;-33.856;151.182;2022-12-29T08:25:58;20.90;99.90
20803;DHT22;10562;-33.856;151.182;2022-12-29T08:28:29;20.90;99.90
20803;DHT22;10562;-33.856;151.182;2022-12-29T08:31:01;20.90;99.90
20803;DHT22;10562;-33.856;151.182;2022-12-29T08:33:32;20.80;99.90
20803;DHT22;10562;-33.856;151.182;2022-12-29T08:36:04;20.70;99.90
20803;DHT22;10562;-33.856;151.182;2022-12-29T08:38:38;20.70;99.90
20803;DHT22;10562;-33.856;151.182;2022-12-29T08:41:08;20.70;99.90
20803;DHT22;10562;-33.856;151.182;2022-12-29T08:43:39;20.70;99.90
20803;DHT22;10562;-33.856;151.182;2022-12-29T08:46:10;20.70;99.90
20803;DHT22;10562;-33.856;151.182;2022-12-29T08:48:40;20.60;99.90
20803;DHT22;10562;-33.856;151.182;2022-12-29T08:51:11;20.60;99.90
20803;DHT22;10562;-33.856;151.182;2022-12-29T08:53:44;20.50;99.90
20803;DHT22;10562;-33.856;151.182;2022-12-29T08:56:15;20.50;99.90
20803;DHT22;10562;-33.856;151.182;2022-12-29T08:58:45;20.40;99.90
20803;DHT22;10562;-33.856;151.182;2022-12-29T09:01:16;20.40;99.90
20803;DHT22;10562;-33.856;151.182;2022-12-29T09:03:47;20.40;99.90
20803;DHT22;10562;-33.856;151.182;2022-12-29T09:06:18;20.40;99.90
20803;DHT22;10562;-33.856;151.182;2022-12-29T09:08:52;20.40;99.90
20803;DHT22;10562;-33.856;151.182;2022-12-29T09:11:24;20.40;99.90
20803;DHT22;10562;-33.856;151.182;2022-12-29T09:13:56;20.30;99.90
20803;DHT22;10562;-33.856;151.182;2022-12-29T09:16:26;20.30;99.90
20803;DHT22;10562;-33.856;151.182;2022-12-29T09:18:57;20.30;99.90
20803;DHT22;10562;-33.856;151.182;2022-12-29T09:21:28;20.20;99.90
20803;DHT22;10562;-33.856;151.182;2022-12-29T09:24:01;20.20;99.90
20803;DHT22;10562;-33.856;151.182;2022-12-29T09:26:31;20.20;99.90
20803;DHT22;10562;-33.856;151.182;2022-12-29T09:29:02;20.20;99.90
20803;DHT22;10562;-33.856;151.182;2022-12-29T09:31:33;20.30;99.90
20803;DHT22;10562;-33.856;151.182;2022-12-29T09:34:04;20.30;99.90
20803;DHT22;10562;-33.856;151.182;2022-12-29T09:36:35;20.30;99.90
20803;DHT22;10562;-33.856;151.182;2022-12-29T09:39:07;20.30;99.90
20803;DHT22;10562;-33.856;151.182;2022-12-29T09:41:43;20.30;99.90
20803;DHT22;10562;-33.856;151.182;2022-12-29T09:44:19;20.40;99.90
20803;DHT22;10562;-33.856;151.182;2022-12-29T09:46:55;20.40;99.90
20803;DHT22;10562;-33.856;151.182;2022-12-29T09:49:29;20.40;99.90
20803;DHT22;10562;-33.856;151.182;2022-12-29T09:52:04;20.40;99.90
20803;DHT22;10562;-33.856;151.182;2022-12-29T09:54:47;20.40;99.90
20803;DHT22;10562;-33.856;151.182;2022-12-29T09:57:24;20.40;99.90
20803;DHT22;10562;-33.856;151.182;2022-12-29T09:59:59;20.40;99.90
20803;DHT22;10562;-33.856;151.182;2022-12-29T10:02:38;20.40;99.90
20803;DHT22;10562;-33.856;151.182;2022-12-29T10:05:27;20.40;99.90
20803;DHT22;10562;-33.856;151.182;2022-12-29T10:08:17;20.40;99.90
20803;DHT22;10562;-33.856;151.182;2022-12-29T10:10:59;20.30;99.90
20803;DHT22;10562;-33.856;151.182;2022-12-29T10:13:40;20.30;99.90
20803;DHT22;10562;-33.856;151.182;2022-12-29T10:16:17;20.30;99.90
20803;DHT22;10562;-33.856;151.182;2022-12-29T10:19:06;20.30;99.90
20803;DHT22;10562;-33.856;151.182;2022-12-29T10:21:49;20.30;99.90
20803;DHT22;10562;-33.856;151.182;2022-12-29T10:24:24;20.30;99.90
20803;DHT22;10562;-33.856;151.182;2022-12-29T10:26:58;20.40;99.90
20803;DHT22;10562;-33.856;151.182;2022-12-29T10:29:34;20.30;99.90
20803;DHT22;10562;-33.856;151.182;2022-12-29T10:32:12;20.30;99.90
20803;DHT22;10562;-33.856;151.182;2022-12-29T10:34:47;20.30;99.90
20803;DHT22;10562;-33.856;151.182;2022-12-29T10:37:27;20.30;99.90
20803;DHT22;10562;-33.856;151.182;2022-12-29T10:40:00;20.30;99.90
20803;DHT22;10562;-33.856;151.182;2022-12-29T10:42:39;20.30;99.90
20803;DHT22;10562;-33.856;151.182;2022-12-29T10:45:14;20.30;99.90
20803;DHT22;10562;-33.856;151.182;2022-12-29T10:47:53;20.30;99.90
20803;DHT22;10562;-33.856;151.182;2022-12-29T10:50:25;20.30;99.90
20803;DHT22;10562;-33.856;151.182;2022-12-29T10:52:59;20.30;99.90
20803;DHT22;10562;-33.856;151.182;2022-12-29T10:55:33;20.30;99.90
20803;DHT22;10562;-33.856;151.182;2022-12-29T10:58:10;20.30;99.90
20803;DHT22;10562;-33.856;151.182;2022-12-29T11:00:43;20.30;99.90
20803;DHT22;10562;-33.856;151.182;2022-12-29T11:03:39;20.30;99.90
20803;DHT22;10562;-33.856;151.182;2022-12-29T11:06:14;20.20;99.90
20803;DHT22;10562;-33.856;151.182;2022-12-29T11:08:53;20.30;99.90
20803;DHT22;10562;-33.856;151.182;2022-12-29T11:11:26;20.20;99.90
20803;DHT22;10562;-33.856;151.182;2022-12-29T11:14:02;20.20;99.90
20803;DHT22;10562;-33.856;151.182;2022-12-29T11:16:34;20.20;99.90
20803;DHT22;10562;-33.856;151.182;2022-12-29T11:19:05;20.20;99.90
20803;DHT22;10562;-33.856;151.182;2022-12-29T11:21:36;20.20;99.90
20803;DHT22;10562;-33.856;151.182;2022-12-29T11:24:22;20.20;99.90
20803;DHT22;10562;-33.856;151.182;2022-12-29T11:27:10;20.20;99.90
20803;DHT22;10562;-33.856;151.182;2022-12-29T11:29:44;20.20;99.90
20803;DHT22;10562;-33.856;151.182;2022-12-29T11:32:20;20.30;99.90
20803;DHT22;10562;-33.856;151.182;2022-12-29T11:34:51;20.20;99.90
20803;DHT22;10562;-33.856;151.182;2022-12-29T11:37:27;20.30;99.90
20803;DHT22;10562;-33.856;151.182;2022-12-29T11:40:00;20.20;99.90
20803;DHT22;10562;-33.856;151.182;2022-12-29T11:42:35;20.20;99.90
20803;DHT22;10562;-33.856;151.182;2022-12-29T11:45:16;20.20;99.90
20803;DHT22;10562;-33.856;151.182;2022-12-29T11:47:52;20.20;99.90
20803;DHT22;10562;-33.856;151.182;2022-12-29T11:50:25;20.20;99.90
20803;DHT22;10562;-33.856;151.182;2022-12-29T11:53:00;20.20;99.90
20803;DHT22;10562;-33.856;151.182;2022-12-29T11:55:32;20.20;99.90
20803;DHT22;10562;-33.856;151.182;2022-12-29T11:58:04;20.20;99.90
20803;DHT22;10562;-33.856;151.182;2022-12-29T12:00:38;20.20;99.90
20803;DHT22;10562;-33.856;151.182;2022-12-29T12:03:13;20.30;99.90
20803;DHT22;10562;-33.856;151.182;2022-12-29T12:05:48;20.30;99.90
20803;DHT22;10562;-33.856;151.182;2022-12-29T12:08:28;20.30;99.90
20803;DHT22;10562;-33.856;151.182;2022-12-29T12:11:07;20.30;99.90
20803;DHT22;10562;-33.856;151.182;2022-12-29T12:13:46;20.20;99.90
20803;DHT22;10562;-33.856;151.182;2022-12-29T12:16:24;20.20;99.90
20803;DHT22;10562;-33.856;151.182;2022-12-29T12:19:00;20.10;99.90
20803;DHT22;10562;-33.856;151.182;2022-12-29T12:21:34;20.20;99.90
20803;DHT22;10562;-33.856;151.182;2022-12-29T12:24:28;20.20;99.90
20803;DHT22;10562;-33.856;151.182;2022-12-29T12:27:07;20.20;99.90
20803;DHT22;10562;-33.856;151.182;2022-12-29T12:29:50;20.20;99.90
20803;DHT22;10562;-33.856;151.182;2022-12-29T12:32:27;20.20;99.90
20803;DHT22;10562;-33.856;151.182;2022-12-29T12:34:59;20.20;99.90
20803;DHT22;10562;-33.856;151.182;2022-12-29T12:37:58;20.20;99.90
20803;DHT22;10562;-33.856;151.182;2022-12-29T12:40:55;20.20;99.90
20803;DHT22;10562;-33.856;151.182;2022-12-29T12:43:41;20.20;99.90
20803;DHT22;10562;-33.856;151.182;2022-12-29T12:46:34;20.20;99.90
20803;DHT22;10562;-33.856;151.182;2022-12-29T12:49:42;20.20;99.90
20803;DHT22;10562;-33.856;151.182;2022-12-29T12:52:25;20.20;99.90
20803;DHT22;10562;-33.856;151.182;2022-12-29T12:55:14;20.20;99.90
20803;DHT22;10562;-33.856;151.182;2022-12-29T12:57:53;20.30;99.90
20803;DHT22;10562;-33.856;151.182;2022-12-29T13:00:29;20.30;99.90
20803;DHT22;10562;-33.856;151.182;2022-12-29T13:03:12;20.20;99.90
20803;DHT22;10562;-33.856;151.182;2022-12-29T13:06:00;20.20;99.90
20803;DHT22;10562;-33.856;151.182;2022-12-29T13:09:08;20.20;99.90
20803;DHT22;10562;-33.856;151.182;2022-12-29T13:11:55;20.20;99.90
20803;DHT22;10562;-33.856;151.182;2022-12-29T13:14:37;20.20;99.90
20803;DHT22;10562;-33.856;151.182;2022-12-29T13:17:17;20.20;99.90
20803;DHT22;10562;-33.856;151.182;2022-12-29T13:19:57;20.20;99.90
20803;DHT22;10562;-33.856;151.182;2022-12-29T13:22:40;20.20;99.90
20803;DHT22;10562;-33.856;151.182;2022-12-29T13:25:24;20.10;99.90
20803;DHT22;10562;-33.856;151.182;2022-12-29T13:28:02;20.10;99.90
20803;DHT22;10562;-33.856;151.182;2022-12-29T13:30:42;20.10;99.90
20803;DHT22;10562;-33.856;151.182;2022-12-29T13:33:20;20.00;99.90
20803;DHT22;10562;-33.856;151.182;2022-12-29T13:36:00;20.00;99.90
20803;DHT22;10562;-33.856;151.182;2022-12-29T13:38:38;20.10;99.90
20803;DHT22;10562;-33.856;151.182;2022-12-29T13:41:11;20.10;99.90
20803;DHT22;10562;-33.856;151.182;2022-12-29T13:43:44;20.10;99.90
20803;DHT22;10562;-33.856;151.182;2022-12-29T13:46:22;20.10;99.90
20803;DHT22;10562;-33.856;151.182;2022-12-29T13:48:57;20.10;99.90
20803;DHT22;10562;-33.856;151.182;2022-12-29T13:51:29;20.00;99.90
20803;DHT22;10562;-33.856;151.182;2022-12-29T13:54:11;20.10;99.90
20803;DHT22;10562;-33.856;151.182;2022-12-29T13:56:48;20.10;99.90
20803;DHT22;10562;-33.856;151.182;2022-12-29T13:59:27;20.10;99.90
20803;DHT22;10562;-33.856;151.182;2022-12-29T14:02:16;20.10;99.90
20803;DHT22;10562;-33.856;151.182;2022-12-29T14:04:59;20.10;99.90
20803;DHT22;10562;-33.856;151.182;2022-12-29T14:07:35;19.90;99.90
20803;DHT22;10562;-33.856;151.182;2022-12-29T14:10:28;19.90;99.90
20803;DHT22;10562;-33.856;151.182;2022-12-29T14:13:10;19.90;99.90
20803;DHT22;10562;-33.856;151.182;2022-12-29T14:15:44;19.90;99.90
20803;DHT22;10562;-33.856;151.182;2022-12-29T14:18:18;19.90;99.90
20803;DHT22;10562;-33.856;151.182;2022-12-29T14:20:54;19.80;99.90
20803;DHT22;10562;-33.856;151.182;2022-12-29T14:23:36;19.70;99.90
20803;DHT22;10562;-33.856;151.182;2022-12-29T14:26:34;19.70;99.90
20803;DHT22;10562;-33.856;151.182;2022-12-29T14:29:43;19.70;99.90
20803;DHT22;10562;-33.856;151.182;2022-12-29T14:32:37;19.70;99.90
20803;DHT22;10562;-33.856;151.182;2022-12-29T14:35:39;19.60;99.90
20803;DHT22;10562;-33.856;151.182;2022-12-29T14:38:24;19.60;99.90
20803;DHT22;10562;-33.856;151.182;2022-12-29T14:41:23;19.60;99.90
20803;DHT22;10562;-33.856;151.182;2022-12-29T14:44:00;19.60;99.90
20803;DHT22;10562;-33.856;151.182;2022-12-29T14:46:58;19.60;99.90
20803;DHT22;10562;-33.856;151.182;2022-12-29T14:49:31;19.50;99.90
20803;DHT22;10562;-33.856;151.182;2022-12-29T14:52:15;19.50;99.90
20803;DHT22;10562;-33.856;151.182;2022-12-29T14:54:55;19.50;99.90
20803;DHT22;10562;-33.856;151.182;2022-12-29T14:57:35;19.50;99.90
20803;DHT22;10562;-33.856;151.182;2022-12-29T15:00:15;19.60;99.90
20803;DHT22;10562;-33.856;151.182;2022-12-29T15:02:49;19.60;99.90
20803;DHT22;10562;-33.856;151.182;2022-12-29T15:05:32;19.60;99.90
20803;DHT22;10562;-33.856;151.182;2022-12-29T15:08:04;19.60;99.90
20803;DHT22;10562;-33.856;151.182;2022-12-29T15:10:41;19.60;99.90
20803;DHT22;10562;-33.856;151.182;2022-12-29T15:13:22;19.60;99.90
20803;DHT22;10562;-33.856;151.182;2022-12-29T15:15:53;19.70;99.90
20803;DHT22;10562;-33.856;151.182;2022-12-29T15:18:25;19.70;99.90
20803;DHT22;10562;-33.856;151.182;2022-12-29T15:20:58;19.60;99.90
20803;DHT22;10562;-33.856;151.182;2022-12-29T15:23:31;19.60;99.90
20803;DHT22;10562;-33.856;151.182;2022-12-29T15:26:03;19.70;99.90
20803;DHT22;10562;-33.856;151.182;2022-12-29T15:28:40;19.60;99.90
20803;DHT22;10562;-33.856;151.182;2022-12-29T15:31:14;19.60;99.90
20803;DHT22;10562;-33.856;151.182;2022-12-29T15:33:46;19.60;99.90
20803;DHT22;10562;-33.856;151.182;2022-12-29T15:36:21;19.70;99.90
20803;DHT22;10562;-33.856;151.182;2022-12-29T15:38:53;19.60;99.90
20803;DHT22;10562;-33.856;151.182;2022-12-29T15:41:29;19.60;99.90
20803;DHT22;10562;-33.856;151.182;2022-12-29T15:44:26;19.70;99.90